sensor_id;sensor_type;location;lat;lon;timestamp;P1;durP1;ratioP1;P2;durP2;ratioP2
9815;SDS011;4947;44.526;11.360;2023-05-07T17:17:34;9.63;;;5.38;;
9815;SDS011;4947;44.526;11.360;2023-05-07T17:20:02;7.72;;;5.50;;
9815;SDS011;4947;44.526;11.360;2023-05-07T17:22:30;13.00;;;6.78;;
9815;SDS011;4947;44.526;11.360;2023-05-07T17:24:58;9.68;;;6.22;;
9815;SDS011;4947;44.526;11.360;2023-05-07T17:27:28;9.48;;;5.47;;
9815;SDS011;4947;44.526;11.360;2023-05-07T17:29:55;7.93;;;5.77;;
9815;SDS011;4947;44.526;11.360;2023-05-07T17:32:22;9.02;;;5.72;;
9815;SDS011;4947;44.526;11.360;2023-05-07T17:34:51;10.65;;;5.50;;
9815;SDS011;4947;44.526;11.360;2023-05-07T17:37:19;12.05;;;4.90;;
9815;SDS011;4947;44.526;11.360;2023-05-07T17:39:46;10.02;;;4.93;;
9815;SDS011;4947;44.526;11.360;2023-05-07T17:42:14;15.35;;;4.78;;
9815;SDS011;4947;44.526;11.360;2023-05-07T17:44:42;9.65;;;5.28;;
9815;SDS011;4947;44.526;11.360;2023-05-07T17:47:09;5.07;;;4.53;;
9815;SDS011;4947;44.526;11.360;2023-05-07T17:49:38;9.77;;;5.53;;
9815;SDS011;4947;44.526;11.360;2023-05-07T17:52:07;5.93;;;4.72;;
9815;SDS011;4947;44.526;11.360;2023-05-07T17:54:36;8.27;;;4.00;;
9815;SDS011;4947;44.526;11.360;2023-05-07T17:57:03;6.13;;;5.13;;
9815;SDS011;4947;44.526;11.360;2023-05-07T17:59:30;6.88;;;5.38;;
9815;SDS011;4947;44.526;11.360;2023-05-07T18:01:59;6.85;;;4.50;;
9815;SDS011;4947;44.526;11.360;2023-05-07T18:04:26;8.57;;;4.63;;
9815;SDS011;4947;44.526;11.360;2023-05-07T18:06:54;5.53;;;4.35;;
9815;SDS011;4947;44.526;11.360;2023-05-07T18:09:24;6.00;;;4.30;;
9815;SDS011;4947;44.526;11.360;2023-05-07T18:11:52;6.43;;;4.30;;
9815;SDS011;4947;44.526;11.360;2023-05-07T18:14:20;7.30;;;4.57;;
9815;SDS011;4947;44.526;11.360;2023-05-07T18:16:50;5.60;;;4.60;;
9815;SDS011;4947;44.526;11.360;2023-05-07T18:19:18;7.13;;;4.28;;
9815;SDS011;4947;44.526;11.360;2023-05-07T18:21:45;8.38;;;4.45;;
9815;SDS011;4947;44.526;11.360;2023-05-07T18:24:12;5.28;;;4.00;;
9815;SDS011;4947;44.526;11.360;2023-05-07T18:26:41;7.10;;;4.68;;
9815;SDS011;4947;44.526;11.360;2023-05-07T18:29:09;5.28;;;4.10;;
9815;SDS011;4947;44.526;11.360;2023-05-07T18:31:36;6.28;;;4.35;;
9815;SDS011;4947;44.526;11.360;2023-05-07T18:34:04;6.97;;;3.95;;
9815;SDS011;4947;44.526;11.360;2023-05-07T18:36:32;4.43;;;3.92;;
9815;SDS011;4947;44.526;11.360;2023-05-07T18:38:59;4.50;;;3.90;;
9815;SDS011;4947;44.526;11.360;2023-05-07T18:41:26;6.00;;;4.20;;
9815;SDS011;4947;44.526;11.360;2023-05-07T18:43:55;5.32;;;4.15;;
9815;SDS011;4947;44.526;11.360;2023-05-07T18:46:22;4.60;;;4.10;;
9815;SDS011;4947;44.526;11.360;2023-05-07T18:48:50;4.38;;;3.83;;
9815;SDS011;4947;44.526;11.360;2023-05-07T18:51:18;6.25;;;4.53;;
9815;SDS011;4947;44.526;11.360;2023-05-07T18:53:46;4.10;;;3.70;;
9815;SDS011;4947;44.526;11.360;2023-05-07T18:56:13;5.25;;;4.07;;
9815;SDS011;4947;44.526;11.360;2023-05-07T18:58:41;5.65;;;3.42;;
9815;SDS011;4947;44.526;11.360;2023-05-07T19:01:10;4.10;;;3.70;;
9815;SDS011;4947;44.526;11.360;2023-05-07T19:03:37;5.00;;;4.30;;
9815;SDS011;4947;44.526;11.360;2023-05-07T19:06:04;4.30;;;3.40;;
9815;SDS011;4947;44.526;11.360;2023-05-07T19:08:32;4.20;;;3.80;;
9815;SDS011;4947;44.526;11.360;2023-05-07T19:10:59;5.57;;;3.83;;
9815;SDS011;4947;44.526;11.360;2023-05-07T19:13:27;4.30;;;3.88;;
9815;SDS011;4947;44.526;11.360;2023-05-07T19:15:55;4.30;;;3.42;;
9815;SDS011;4947;44.526;11.360;2023-05-07T19:18:25;4.80;;;3.40;;
9815;SDS011;4947;44.526;11.360;2023-05-07T19:20:53;4.85;;;4.35;;
9815;SDS011;4947;44.526;11.360;2023-05-07T19:23:21;4.70;;;4.15;;
9815;SDS011;4947;44.526;11.360;2023-05-07T19:25:48;4.25;;;3.50;;
9815;SDS011;4947;44.526;11.360;2023-05-07T19:28:16;4.00;;;3.60;;
9815;SDS011;4947;44.526;11.360;2023-05-07T19:30:43;4.28;;;3.40;;
9815;SDS011;4947;44.526;11.360;2023-05-07T19:33:11;4.10;;;3.70;;
9815;SDS011;4947;44.526;11.360;2023-05-07T19:35:40;4.38;;;3.97;;
9815;SDS011;4947;44.526;11.360;2023-05-07T19:38:07;4.18;;;3.78;;
9815;SDS011;4947;44.526;11.360;2023-05-07T19:40:35;4.38;;;3.95;;
9815;SDS011;4947;44.526;11.360;2023-05-07T19:43:02;3.85;;;3.40;;
9815;SDS011;4947;44.526;11.360;2023-05-07T19:45:29;3.97;;;3.58;;
9815;SDS011;4947;44.526;11.360;2023-05-07T19:47:57;4.03;;;3.67;;
9815;SDS011;4947;44.526;11.360;2023-05-07T19:50:24;4.80;;;3.83;;
9815;SDS011;4947;44.526;11.360;2023-05-07T19:52:53;3.55;;;3.08;;
9815;SDS011;4947;44.526;11.360;2023-05-07T19:55:20;3.72;;;3.22;;
9815;SDS011;4947;44.526;11.360;2023-05-07T19:57:48;3.60;;;3.10;;
9815;SDS011;4947;44.526;11.360;2023-05-07T20:00:16;4.43;;;3.63;;
9815;SDS011;4947;44.526;11.360;2023-05-07T20:02:45;3.70;;;3.40;;
9815;SDS011;4947;44.526;11.360;2023-05-07T20:05:13;3.63;;;3.33;;
9815;SDS011;4947;44.526;11.360;2023-05-07T20:07:40;3.80;;;3.50;;
9815;SDS011;4947;44.526;11.360;2023-05-07T20:10:10;3.60;;;3.25;;
9815;SDS011;4947;44.526;11.360;2023-05-07T20:12:37;4.35;;;3.67;;
9815;SDS011;4947;44.526;11.360;2023-05-07T20:15:05;5.15;;;3.85;;
9815;SDS011;4947;44.526;11.360;2023-05-07T20:17:33;3.58;;;3.28;;
9815;SDS011;4947;44.526;11.360;2023-05-07T20:20:05;3.88;;;3.42;;
9815;SDS011;4947;44.526;11.360;2023-05-07T20:22:33;3.63;;;3.33;;
9815;SDS011;4947;44.526;11.360;2023-05-07T20:25:02;3.50;;;3.20;;
9815;SDS011;4947;44.526;11.360;2023-05-07T20:27:31;4.32;;;3.55;;
9815;SDS011;4947;44.526;11.360;2023-05-07T20:29:59;4.00;;;3.60;;
9815;SDS011;4947;44.526;11.360;2023-05-07T20:32:27;4.03;;;3.63;;
9815;SDS011;4947;44.526;11.360;2023-05-07T20:34:55;3.97;;;3.40;;
9815;SDS011;4947;44.526;11.360;2023-05-07T20:37:22;3.60;;;3.30;;
9815;SDS011;4947;44.526;11.360;2023-05-07T20:39:50;3.80;;;3.50;;
9815;SDS011;4947;44.526;11.360;2023-05-07T20:42:18;3.83;;;3.50;;
9815;SDS011;4947;44.526;11.360;2023-05-07T20:44:47;3.50;;;3.20;;
9815;SDS011;4947;44.526;11.360;2023-05-07T20:47:14;5.35;;;3.45;;
9815;SDS011;4947;44.526;11.360;2023-05-07T20:49:41;3.63;;;3.33;;
9815;SDS011;4947;44.526;11.360;2023-05-07T20:52:09;3.63;;;3.33;;
9815;SDS011;4947;44.526;11.360;2023-05-07T20:54:36;4.68;;;3.50;;
9815;SDS011;4947;44.526;11.360;2023-05-07T20:57:04;4.50;;;3.30;;
9815;SDS011;4947;44.526;11.360;2023-05-07T20:59:32;4.03;;;3.25;;
9815;SDS011;4947;44.526;11.360;2023-05-07T21:02:01;3.97;;;3.58;;
9815;SDS011;4947;44.526;11.360;2023-05-07T21:04:29;3.80;;;3.40;;
9815;SDS011;4947;44.526;11.360;2023-05-07T21:06:56;3.35;;;3.05;;
9815;SDS011;4947;44.526;11.360;2023-05-07T21:09:23;3.90;;;3.45;;
9815;SDS011;4947;44.526;11.360;2023-05-07T21:11:51;3.55;;;3.25;;
9815;SDS011;4947;44.526;11.360;2023-05-07T21:14:19;4.53;;;3.38;;
9815;SDS011;4947;44.526;11.360;2023-05-07T21:16:46;3.50;;;3.15;;
9815;SDS011;4947;44.526;11.360;2023-05-07T21:19:15;3.47;;;3.17;;
9815;SDS011;4947;44.526;11.360;2023-05-07T21:21:43;3.45;;;3.15;;
9815;SDS011;4947;44.526;11.360;2023-05-07T21:24:10;3.40;;;3.00;;
9815;SDS011;4947;44.526;11.360;2023-05-07T21:26:38;4.25;;;3.30;;
9815;SDS011;4947;44.526;11.360;2023-05-07T21:29:10;2.90;;;2.70;;
9815;SDS011;4947;44.526;11.360;2023-05-07T21:31:39;3.20;;;2.90;;
9815;SDS011;4947;44.526;11.360;2023-05-07T21:34:06;3.30;;;3.00;;
9815;SDS011;4947;44.526;11.360;2023-05-07T21:36:35;3.55;;;3.25;;
9815;SDS011;4947;44.526;11.360;2023-05-07T21:39:02;3.70;;;3.33;;
9815;SDS011;4947;44.526;11.360;2023-05-07T21:41:31;3.45;;;3.15;;
9815;SDS011;4947;44.526;11.360;2023-05-07T21:43:59;3.88;;;3.30;;
9815;SDS011;4947;44.526;11.360;2023-05-07T21:46:26;3.42;;;3.13;;
9815;SDS011;4947;44.526;11.360;2023-05-07T21:48:54;3.08;;;2.88;;
9815;SDS011;4947;44.526;11.360;2023-05-07T21:51:21;3.65;;;3.00;;
9815;SDS011;4947;44.526;11.360;2023-05-07T21:53:50;3.35;;;3.03;;
9815;SDS011;4947;44.526;11.360;2023-05-07T21:56:19;3.25;;;2.88;;
9815;SDS011;4947;44.526;11.360;2023-05-07T21:58:47;3.70;;;2.88;;
9815;SDS011;4947;44.526;11.360;2023-05-07T22:01:14;3.20;;;2.90;;
9815;SDS011;4947;44.526;11.360;2023-05-07T22:03:42;3.58;;;3.28;;
9815;SDS011;4947;44.526;11.360;2023-05-07T22:06:09;3.53;;;3.05;;
9815;SDS011;4947;44.526;11.360;2023-05-07T22:08:37;3.42;;;3.13;;
9815;SDS011;4947;44.526;11.360;2023-05-07T22:11:05;3.35;;;2.92;;
9815;SDS011;4947;44.526;11.360;2023-05-07T22:13:33;3.17;;;2.88;;
9815;SDS011;4947;44.526;11.360;2023-05-07T22:16:00;3.10;;;2.90;;
9815;SDS011;4947;44.526;11.360;2023-05-07T22:18:28;2.92;;;2.55;;
9815;SDS011;4947;44.526;11.360;2023-05-07T22:20:55;3.30;;;3.00;;
9815;SDS011;4947;44.526;11.360;2023-05-07T22:23:23;3.10;;;2.80;;
9815;SDS011;4947;44.526;11.360;2023-05-07T22:25:50;3.17;;;2.88;;
9815;SDS011;4947;44.526;11.360;2023-05-07T22:28:19;3.22;;;2.90;;
9815;SDS011;4947;44.526;11.360;2023-05-07T22:30:47;3.50;;;3.03;;
9815;SDS011;4947;44.526;11.360;2023-05-07T22:33:14;2.92;;;2.63;;
9815;SDS011;4947;44.526;11.360;2023-05-07T22:35:41;3.10;;;2.80;;
9815;SDS011;4947;44.526;11.360;2023-05-07T22:38:09;3.42;;;3.13;;
9815;SDS011;4947;44.526;11.360;2023-05-07T22:40:36;3.10;;;2.80;;
9815;SDS011;4947;44.526;11.360;2023-05-07T22:43:04;3.15;;;2.90;;
9815;SDS011;4947;44.526;11.360;2023-05-07T22:45:33;2.67;;;2.47;;
9815;SDS011;4947;44.526;11.360;2023-05-07T22:48:00;3.00;;;2.70;;
9815;SDS011;4947;44.526;11.360;2023-05-07T22:50:28;3.10;;;2.80;;
9815;SDS011;4947;44.526;11.360;2023-05-07T22:52:55;3.33;;;3.03;;
9815;SDS011;4947;44.526;11.360;2023-05-07T22:55:22;3.15;;;2.85;;
9815;SDS011;4947;44.526;11.360;2023-05-07T22:57:50;3.05;;;2.83;;
9815;SDS011;4947;44.526;11.360;2023-05-07T23:00:17;3.30;;;3.00;;
9815;SDS011;4947;44.526;11.360;2023-05-07T23:02:47;3.60;;;3.30;;
9815;SDS011;4947;44.526;11.360;2023-05-07T23:05:14;3.25;;;2.95;;
9815;SDS011;4947;44.526;11.360;2023-05-07T23:07:42;2.60;;;2.40;;
9815;SDS011;4947;44.526;11.360;2023-05-07T23:10:09;2.95;;;2.75;;
9815;SDS011;4947;44.526;11.360;2023-05-07T23:12:36;3.03;;;2.72;;
9815;SDS011;4947;44.526;11.360;2023-05-07T23:15:04;3.03;;;2.72;;
9815;SDS011;4947;44.526;11.360;2023-05-07T23:17:32;3.42;;;3.13;;
9815;SDS011;4947;44.526;11.360;2023-05-07T23:20:02;3.25;;;2.78;;
9815;SDS011;4947;44.526;11.360;2023-05-07T23:22:31;2.97;;;2.75;;
9815;SDS011;4947;44.526;11.360;2023-05-07T23:24:58;3.30;;;3.00;;
9815;SDS011;4947;44.526;11.360;2023-05-07T23:27:26;2.80;;;2.60;;
9815;SDS011;4947;44.526;11.360;2023-05-07T23:29:55;3.55;;;3.25;;
9815;SDS011;4947;44.526;11.360;2023-05-07T23:32:22;3.25;;;2.95;;
9815;SDS011;4947;44.526;11.360;2023-05-07T23:34:50;3.10;;;2.80;;
9815;SDS011;4947;44.526;11.360;2023-05-07T23:37:21;3.17;;;2.88;;
9815;SDS011;4947;44.526;11.360;2023-05-07T23:39:51;3.22;;;2.90;;
9815;SDS011;4947;44.526;11.360;2023-05-07T23:42:19;3.38;;;2.95;;
9815;SDS011;4947;44.526;11.360;2023-05-07T23:44:46;2.80;;;2.50;;
9815;SDS011;4947;44.526;11.360;2023-05-07T23:47:14;2.78;;;2.58;;
9815;SDS011;4947;44.526;11.360;2023-05-07T23:49:41;2.70;;;2.50;;
9815;SDS011;4947;44.526;11.360;2023-05-07T23:52:08;2.90;;;2.70;;
9815;SDS011;4947;44.526;11.360;2023-05-07T23:54:37;2.80;;;2.58;;
9815;SDS011;4947;44.526;11.360;2023-05-07T23:57:05;3.17;;;2.88;;
9815;SDS011;4947;44.526;11.360;2023-05-07T23:59:33;3.30;;;3.00;;
